createdAt,value
2022-08-30T00:00:03.499Z,3.45
2022-08-30T00:02:32.386Z,3.90
2022-08-30T00:05:01.675Z,3.97
2022-08-30T00:07:30.893Z,5.15
2022-08-30T00:10:00.933Z,4.30
2022-08-30T00:12:30.443Z,4.57
2022-08-30T00:14:59.465Z,4.30
2022-08-30T00:17:28.014Z,3.88
2022-08-30T00:19:58.104Z,4.13
2022-08-30T00:22:26.693Z,4.20
2022-08-30T00:24:55.292Z,3.95
2022-08-30T00:27:25.599Z,4.25
2022-08-30T00:29:54.197Z,4.25
2022-08-30T00:32:23.527Z,3.88
2022-08-30T00:34:53.769Z,3.90
2022-08-30T00:37:22.868Z,4.10
2022-08-30T00:39:51.529Z,4.38
2022-08-30T00:42:22.274Z,4.20
2022-08-30T00:44:53.194Z,4.00
2022-08-30T00:47:21.970Z,4.32
2022-08-30T00:49:53.771Z,4.43
2022-08-30T00:52:24.937Z,4.25
2022-08-30T00:54:54.242Z,4.65
2022-08-30T00:57:22.866Z,4.57
2022-08-30T00:59:52.801Z,4.88
2022-08-30T01:02:24.812Z,4.40
2022-08-30T01:04:55.416Z,5.18
2022-08-30T01:07:24.029Z,5.05
2022-08-30T01:09:52.618Z,5.38
2022-08-30T01:12:21.558Z,4.72
2022-08-30T01:14:50.973Z,4.70
2022-08-30T01:17:23.233Z,5.28
2022-08-30T01:19:57.087Z,4.75
2022-08-30T01:22:31.662Z,5.20
2022-08-30T01:25:04.025Z,5.68
2022-08-30T01:27:42.000Z,5.15
2022-08-30T01:30:12.526Z,5.50
2022-08-30T01:32:43.131Z,5.53
2022-08-30T01:35:14.163Z,5.10
2022-08-30T01:37:45.374Z,5.47
2022-08-30T01:40:16.452Z,5.30
2022-08-30T01:42:45.048Z,5.50
2022-08-30T01:45:14.492Z,5.85
2022-08-30T01:47:43.077Z,5.95
2022-08-30T01:50:12.326Z,5.57
2022-08-30T01:52:41.039Z,5.75
2022-08-30T01:55:11.441Z,5.50
2022-08-30T01:57:41.740Z,5.85
2022-08-30T02:00:11.844Z,5.95
2022-08-30T02:02:40.813Z,6.25
2022-08-30T02:05:09.977Z,6.15
2022-08-30T02:07:38.639Z,5.70
2022-08-30T02:10:08.036Z,6.47
2022-08-30T02:12:36.619Z,6.75
2022-08-30T02:15:08.090Z,6.60
2022-08-30T02:17:36.897Z,7.00
2022-08-30T02:20:06.465Z,11.43
2022-08-30T02:22:36.476Z,7.70
2022-08-30T02:25:06.809Z,14.65
2022-08-30T02:27:39.985Z,8.18
2022-08-30T02:30:14.430Z,7.55
2022-08-30T02:32:43.099Z,7.25
2022-08-30T02:35:11.759Z,7.97
2022-08-30T02:37:40.354Z,7.40
2022-08-30T02:40:10.317Z,7.03
2022-08-30T02:42:39.004Z,6.93
2022-08-30T02:45:08.670Z,6.88
2022-08-30T02:47:38.744Z,7.22
2022-08-30T02:50:10.158Z,7.15
2022-08-30T02:52:39.305Z,7.30
2022-08-30T02:55:09.912Z,6.85
2022-08-30T02:57:38.933Z,7.22
2022-08-30T03:00:09.397Z,8.00
2022-08-30T03:02:39.416Z,7.90
2022-08-30T03:05:08.601Z,7.38
2022-08-30T03:07:37.157Z,7.97
2022-08-30T03:10:06.189Z,7.47
2022-08-30T03:12:35.082Z,7.68
2022-08-30T03:15:03.838Z,7.30
2022-08-30T03:17:32.392Z,7.70
2022-08-30T03:20:02.525Z,7.85
2022-08-30T03:22:31.233Z,8.00
2022-08-30T03:25:01.460Z,7.85
2022-08-30T03:27:30.809Z,7.25
2022-08-30T03:29:59.392Z,7.60
2022-08-30T03:32:27.937Z,8.15
2022-08-30T03:34:56.482Z,7.40
2022-08-30T03:37:27.808Z,7.68
2022-08-30T03:39:56.580Z,7.80
2022-08-30T03:42:25.661Z,7.97
2022-08-30T03:44:54.288Z,8.50
2022-08-30T03:47:22.879Z,8.05
2022-08-30T03:49:51.537Z,7.85
2022-08-30T03:52:21.257Z,7.82
2022-08-30T03:54:51.244Z,7.90
2022-08-30T03:57:24.306Z,8.00
2022-08-30T03:59:53.253Z,7.78
2022-08-30T04:02:22.357Z,7.93
2022-08-30T04:04:51.887Z,8.35
2022-08-30T04:07:20.466Z,7.65
2022-08-30T04:09:49.074Z,8.27
2022-08-30T04:12:22.857Z,8.40
2022-08-30T04:14:51.649Z,8.10
2022-08-30T04:17:20.468Z,7.55
2022-08-30T04:19:49.106Z,7.75
2022-08-30T04:22:18.076Z,8.10
2022-08-30T04:24:46.609Z,8.18
2022-08-30T04:27:15.180Z,8.05
2022-08-30T04:29:45.079Z,8.05
2022-08-30T04:32:13.675Z,7.93
2022-08-30T04:34:42.328Z,7.80
2022-08-30T04:37:10.884Z,8.23
2022-08-30T04:39:39.704Z,8.35
2022-08-30T04:42:10.837Z,8.25
2022-08-30T04:44:39.361Z,8.25
2022-08-30T04:47:09.764Z,7.68
2022-08-30T04:49:38.376Z,7.43
2022-08-30T04:52:08.925Z,8.25
2022-08-30T04:54:37.771Z,7.70
2022-08-30T04:57:07.198Z,7.78
2022-08-30T04:59:35.781Z,8.07
2022-08-30T05:02:04.399Z,8.55
2022-08-30T05:04:34.366Z,8.32
2022-08-30T05:07:02.956Z,8.27
2022-08-30T05:09:31.535Z,8.52
2022-08-30T05:12:00.163Z,9.07
2022-08-30T05:14:28.755Z,8.13
2022-08-30T05:16:57.364Z,9.25
2022-08-30T05:19:25.906Z,8.60
2022-08-30T05:21:55.777Z,9.15
2022-08-30T05:24:24.297Z,8.82
2022-08-30T05:26:52.835Z,7.93
2022-08-30T05:29:21.766Z,8.55
2022-08-30T05:31:50.386Z,9.00
2022-08-30T05:34:19.053Z,8.82
2022-08-30T05:36:47.744Z,8.30
2022-08-30T05:39:17.856Z,8.43
2022-08-30T05:41:49.789Z,8.80
2022-08-30T05:44:21.045Z,8.65
2022-08-30T05:46:52.987Z,8.40
2022-08-30T05:49:21.613Z,8.73
2022-08-30T05:51:50.336Z,8.25
2022-08-30T05:54:20.247Z,9.32
2022-08-30T05:56:48.778Z,10.88
2022-08-30T05:59:18.038Z,8.77
2022-08-30T06:01:48.167Z,8.68
2022-08-30T06:04:17.765Z,9.38
2022-08-30T06:06:46.356Z,8.32
2022-08-30T06:09:16.162Z,9.25
2022-08-30T06:11:47.334Z,9.00
2022-08-30T06:14:16.394Z,9.73
2022-08-30T06:16:45.988Z,9.43
2022-08-30T06:19:16.795Z,9.48
2022-08-30T06:21:48.187Z,9.15
2022-08-30T06:24:17.064Z,8.77
2022-08-30T06:26:48.384Z,7.97
2022-08-30T06:29:21.160Z,9.48
2022-08-30T06:31:50.235Z,9.32
2022-08-30T06:34:18.997Z,9.68
2022-08-30T06:36:47.697Z,9.88
2022-08-30T06:39:16.412Z,10.27
2022-08-30T06:41:46.457Z,10.05
2022-08-30T06:44:15.068Z,10.20
2022-08-30T06:46:43.697Z,10.00
2022-08-30T06:49:12.778Z,10.57
2022-08-30T06:51:42.114Z,9.70
2022-08-30T06:54:13.432Z,10.10
2022-08-30T06:56:57.749Z,10.32
2022-08-30T06:59:28.877Z,11.40
2022-08-30T07:01:57.821Z,10.00
2022-08-30T07:04:27.058Z,10.48
2022-08-30T07:06:56.022Z,10.50
2022-08-30T07:09:25.499Z,10.18
2022-08-30T07:11:54.921Z,10.20
2022-08-30T07:14:23.541Z,10.45
2022-08-30T07:16:53.721Z,10.70
2022-08-30T07:19:22.749Z,11.35
2022-08-30T07:21:51.586Z,10.50
2022-08-30T07:24:21.292Z,10.23
2022-08-30T07:26:52.334Z,11.48
2022-08-30T07:29:21.886Z,10.75
2022-08-30T07:31:50.706Z,10.65
2022-08-30T07:34:23.390Z,11.57
2022-08-30T07:36:54.538Z,10.00
2022-08-30T07:39:23.202Z,10.45
2022-08-30T07:41:51.993Z,10.63
2022-08-30T07:44:20.656Z,10.15
2022-08-30T07:46:53.812Z,9.07
2022-08-30T07:49:23.869Z,9.20
2022-08-30T07:51:52.511Z,11.38
2022-08-30T07:54:21.361Z,11.10
2022-08-30T07:56:50.192Z,7.50
2022-08-30T07:59:18.770Z,7.18
2022-08-30T08:01:47.409Z,7.57
2022-08-30T08:04:16.729Z,8.40
2022-08-30T08:06:46.689Z,11.32
2022-08-30T08:09:15.297Z,8.88
2022-08-30T08:11:43.919Z,8.80
2022-08-30T08:14:12.730Z,8.52
2022-08-30T08:16:42.409Z,7.55
2022-08-30T08:19:11.276Z,7.95
2022-08-30T08:21:40.145Z,7.45
2022-08-30T08:24:10.153Z,6.38
2022-08-30T08:26:41.001Z,6.05
2022-08-30T08:29:13.926Z,6.05
2022-08-30T08:31:42.932Z,5.40
2022-08-30T08:34:11.832Z,5.15
2022-08-30T08:36:41.540Z,5.03
2022-08-30T08:39:11.870Z,4.10
2022-08-30T08:41:52.055Z,4.65
2022-08-30T08:44:34.730Z,33.95
2022-08-30T08:47:13.677Z,3.67
2022-08-30T08:49:45.567Z,3.55
2022-08-30T08:52:37.509Z,15.63
2022-08-30T08:55:12.656Z,5.28
2022-08-30T08:57:42.201Z,4.25
2022-08-30T09:00:13.997Z,3.50
2022-08-30T09:02:45.633Z,3.05
2022-08-30T09:05:20.238Z,3.35
2022-08-30T09:07:53.547Z,3.20
2022-08-30T09:10:47.204Z,3.40
2022-08-30T09:13:14.849Z,3.10
2022-08-30T09:15:53.704Z,2.80
2022-08-30T09:18:45.334Z,3.95
2022-08-30T09:21:15.410Z,2.80
2022-08-30T09:23:50.403Z,2.50
2022-08-30T09:26:30.884Z,2.90
2022-08-30T09:29:01.100Z,2.85
2022-08-30T09:31:31.209Z,2.90
2022-08-30T09:34:03.572Z,2.50
2022-08-30T09:36:35.808Z,2.20
2022-08-30T09:39:06.489Z,2.42
2022-08-30T09:41:42.695Z,2.90
2022-08-30T09:44:16.710Z,3.10
2022-08-30T09:46:51.170Z,2.47
2022-08-30T09:49:30.333Z,2.78
2022-08-30T09:52:10.590Z,3.60
2022-08-30T09:54:49.906Z,2.42
2022-08-30T09:57:33.562Z,2.80
2022-08-30T10:02:49.103Z,2.20
2022-08-30T10:05:26.627Z,2.53
2022-08-30T10:08:06.298Z,3.50
2022-08-30T10:10:45.756Z,3.15
2022-08-30T10:13:37.040Z,2.58
2022-08-30T10:16:17.092Z,2.30
2022-08-30T10:18:55.173Z,2.35
2022-08-30T10:21:29.907Z,2.97
2022-08-30T10:24:03.977Z,2.80
2022-08-30T10:29:10.073Z,3.47
2022-08-30T10:31:45.673Z,2.40
2022-08-30T10:34:19.653Z,3.25
2022-08-30T10:36:55.060Z,2.08
2022-08-30T10:39:26.660Z,2.30
2022-08-30T10:42:06.539Z,2.42
2022-08-30T10:44:41.344Z,3.80
2022-08-30T10:47:23.097Z,2.35
2022-08-30T10:49:58.773Z,7.13
2022-08-30T10:52:35.826Z,3.67
2022-08-30T10:55:11.342Z,4.00
2022-08-30T10:57:42.918Z,2.60
2022-08-30T11:00:17.923Z,3.10
2022-08-30T11:03:26.964Z,3.03
2022-08-30T11:06:10.772Z,2.03
2022-08-30T11:08:54.015Z,1.88
2022-08-30T11:11:34.925Z,2.17
2022-08-30T11:14:06.018Z,8.57
2022-08-30T11:16:39.995Z,2.50
2022-08-30T11:19:18.907Z,1.90
2022-08-30T11:21:51.094Z,1.90
2022-08-30T11:24:22.083Z,2.13
2022-08-30T11:27:00.177Z,2.70
2022-08-30T11:29:40.601Z,3.60
2022-08-30T11:33:02.157Z,2.85
2022-08-30T11:35:48.367Z,2.40
2022-08-30T11:38:43.170Z,2.88
2022-08-30T11:41:30.110Z,2.95
2022-08-30T11:44:14.833Z,2.10
2022-08-30T11:46:45.534Z,10.57
2022-08-30T11:49:46.233Z,2.00
2022-08-30T11:52:32.135Z,1.90
2022-08-30T11:55:23.829Z,2.40
2022-08-30T11:58:01.886Z,2.45
2022-08-30T12:00:35.372Z,2.90
2022-08-30T12:03:07.024Z,2.22
2022-08-30T12:05:59.055Z,2.30
2022-08-30T12:09:02.242Z,2.47
2022-08-30T12:11:57.779Z,2.20
2022-08-30T12:14:57.690Z,2.10
2022-08-30T12:17:52.265Z,2.30
2022-08-30T12:20:26.237Z,2.40
2022-08-30T12:22:56.264Z,3.03
2022-08-30T12:25:29.878Z,2.30
2022-08-30T12:28:18.423Z,2.10
2022-08-30T12:30:48.806Z,1.83
2022-08-30T12:33:29.520Z,2.00
2022-08-30T12:35:59.712Z,2.10
2022-08-30T12:38:29.875Z,1.92
2022-08-30T12:41:01.855Z,1.83
2022-08-30T12:43:40.415Z,2.83
2022-08-30T12:46:16.174Z,2.67
2022-08-30T12:48:46.099Z,3.25
2022-08-30T12:51:37.188Z,2.88
2022-08-30T12:54:18.896Z,1.80
2022-08-30T12:56:50.963Z,1.80
2022-08-30T12:59:55.401Z,1.70
2022-08-30T13:04:57.140Z,2.10
2022-08-30T13:07:28.933Z,3.80
2022-08-30T13:10:19.536Z,2.50
2022-08-30T13:13:02.918Z,3.78
2022-08-30T13:15:33.785Z,3.65
2022-08-30T13:18:22.249Z,2.63
2022-08-30T13:21:11.826Z,2.42
2022-08-30T13:23:41.289Z,4.28
2022-08-30T13:26:09.816Z,3.20
2022-08-30T13:28:53.566Z,3.00
2022-08-30T13:31:22.781Z,2.97
2022-08-30T13:33:53.996Z,3.10
2022-08-30T13:36:24.631Z,2.92
2022-08-30T13:38:53.555Z,3.15
2022-08-30T13:41:22.950Z,2.97
2022-08-30T13:46:44.790Z,3.20
2022-08-30T13:52:20.281Z,2.92
2022-08-30T13:54:51.297Z,3.17
2022-08-30T14:00:17.826Z,3.30
2022-08-30T14:02:53.902Z,2.90
2022-08-30T14:11:07.332Z,2.80
2022-08-30T14:13:36.102Z,3.50
2022-08-30T14:18:57.468Z,2.85
2022-08-30T14:21:27.626Z,2.70
2022-08-30T14:23:57.686Z,2.78
2022-08-30T14:26:33.236Z,3.40
2022-08-30T14:29:03.554Z,3.35
2022-08-30T14:31:32.731Z,3.58
2022-08-30T14:34:03.387Z,3.30
2022-08-30T14:36:36.054Z,3.15
2022-08-30T14:39:08.685Z,3.60
2022-08-30T14:41:43.906Z,3.75
2022-08-30T14:44:13.327Z,3.47
2022-08-30T14:46:42.684Z,3.35
2022-08-30T14:49:12.223Z,3.45
2022-08-30T14:51:43.262Z,3.50
2022-08-30T14:54:12.025Z,4.38
2022-08-30T14:56:42.300Z,5.90
2022-08-30T14:59:13.273Z,5.13
2022-08-30T15:01:43.059Z,19.23
2022-08-30T15:04:13.609Z,3.92
2022-08-30T15:06:46.086Z,3.40
2022-08-30T15:09:18.602Z,3.50
2022-08-30T15:11:52.561Z,4.13
2022-08-30T15:14:21.819Z,3.70
2022-08-30T15:16:50.570Z,3.53
2022-08-30T15:19:19.466Z,5.10
2022-08-30T15:21:49.928Z,3.83
2022-08-30T15:24:27.607Z,5.07
2022-08-30T15:26:59.870Z,3.25
2022-08-30T15:29:30.638Z,3.80
2022-08-30T15:32:02.100Z,4.47
2022-08-30T15:34:32.009Z,3.90
2022-08-30T15:37:02.373Z,3.78
2022-08-30T15:39:32.642Z,4.50
2022-08-30T15:42:01.908Z,3.88
2022-08-30T15:44:31.374Z,4.22
2022-08-30T15:47:00.467Z,4.90
2022-08-30T15:49:30.053Z,8.27
2022-08-30T15:52:03.902Z,9.35
2022-08-30T15:54:33.120Z,3.55
2022-08-30T15:57:01.735Z,4.15
2022-08-30T15:59:31.620Z,3.60
2022-08-30T16:02:01.155Z,3.40
2022-08-30T16:04:30.433Z,3.47
2022-08-30T16:06:59.889Z,3.88
2022-08-30T16:09:32.580Z,3.97
2022-08-30T16:12:02.370Z,3.33
2022-08-30T16:14:33.867Z,2.80
2022-08-30T16:17:03.052Z,3.55
2022-08-30T16:19:31.876Z,3.22
2022-08-30T16:22:00.561Z,3.90
2022-08-30T16:24:30.689Z,4.07
2022-08-30T16:26:59.481Z,4.18
2022-08-30T16:29:28.333Z,3.03
2022-08-30T16:31:58.300Z,2.88
2022-08-30T16:34:26.956Z,2.90
2022-08-30T16:36:55.652Z,3.72
2022-08-30T16:39:25.021Z,3.20
2022-08-30T16:41:55.135Z,3.33
2022-08-30T16:44:26.521Z,3.17
2022-08-30T16:46:58.772Z,3.03
2022-08-30T16:49:27.546Z,3.08
2022-08-30T16:51:56.253Z,3.08
2022-08-30T16:54:25.297Z,3.05
2022-08-30T16:56:55.793Z,2.58
2022-08-30T16:59:24.897Z,3.00
2022-08-30T17:01:54.554Z,3.05
2022-08-30T17:04:23.463Z,2.75
2022-08-30T17:06:54.076Z,2.70
2022-08-30T17:09:23.022Z,3.15
2022-08-30T17:11:53.028Z,2.53
2022-08-30T17:14:28.192Z,3.40
2022-08-30T17:17:00.364Z,3.17
2022-08-30T17:19:30.623Z,3.10
2022-08-30T17:22:00.478Z,3.38
2022-08-30T17:24:29.443Z,3.00
2022-08-30T17:26:58.503Z,3.25
2022-08-30T17:29:29.686Z,3.10
2022-08-30T17:31:59.113Z,3.45
2022-08-30T17:34:28.805Z,3.38
2022-08-30T17:36:59.980Z,4.20
2022-08-30T17:39:29.573Z,3.30
2022-08-30T17:41:58.799Z,4.53
2022-08-30T17:44:33.399Z,3.33
2022-08-30T17:47:02.257Z,3.63
2022-08-30T17:49:33.405Z,3.58
2022-08-30T17:52:03.399Z,3.45
2022-08-30T17:54:34.849Z,3.90
2022-08-30T17:57:10.717Z,3.80
2022-08-30T17:59:41.569Z,4.13
2022-08-30T18:02:11.042Z,6.55
2022-08-30T18:04:41.646Z,6.25
2022-08-30T18:07:12.025Z,3.70
2022-08-30T18:09:59.692Z,4.30
2022-08-30T18:12:28.783Z,3.75
2022-08-30T18:14:58.967Z,5.18
2022-08-30T18:17:28.462Z,4.25
2022-08-30T18:19:57.744Z,4.15
2022-08-30T18:22:26.471Z,3.85
2022-08-30T18:24:59.090Z,4.50
2022-08-30T18:27:30.917Z,4.78
2022-08-30T18:30:01.245Z,5.00
2022-08-30T18:32:36.139Z,3.78
2022-08-30T18:35:07.592Z,3.42
2022-08-30T18:37:38.130Z,4.10
2022-08-30T18:40:09.819Z,6.93
2022-08-30T18:42:39.075Z,4.30
2022-08-30T18:45:14.740Z,3.92
2022-08-30T18:50:12.897Z,3.90
2022-08-30T18:52:41.531Z,6.03
2022-08-30T18:55:13.746Z,4.40
2022-08-30T18:57:42.332Z,8.15
2022-08-30T19:00:15.084Z,6.20
2022-08-30T19:02:43.815Z,4.30
2022-08-30T19:05:13.513Z,3.97
2022-08-30T19:07:42.680Z,3.35
2022-08-30T19:10:13.274Z,4.50
2022-08-30T19:12:42.173Z,5.47
2022-08-30T19:15:13.196Z,6.22
2022-08-30T19:17:44.577Z,4.47
2022-08-30T19:20:15.783Z,3.63
2022-08-30T19:23:09.179Z,4.22
2022-08-30T19:25:33.126Z,3.70
2022-08-30T19:28:01.755Z,3.70
2022-08-30T19:30:31.751Z,4.60
2022-08-30T19:33:00.877Z,3.80
2022-08-30T19:35:30.433Z,3.60
2022-08-30T19:37:59.750Z,3.55
2022-08-30T19:40:28.608Z,3.70
2022-08-30T19:42:58.321Z,3.40
2022-08-30T19:45:27.017Z,3.47
2022-08-30T19:47:58.383Z,3.50
2022-08-30T19:50:27.309Z,4.30
2022-08-30T19:52:56.728Z,4.13
2022-08-30T19:55:28.468Z,3.67
2022-08-30T19:57:58.960Z,4.82
2022-08-30T20:00:31.085Z,4.38
2022-08-30T20:03:02.218Z,6.55
2022-08-30T20:05:31.555Z,4.88
2022-08-30T20:08:00.864Z,10.20
2022-08-30T20:10:30.064Z,4.18
2022-08-30T20:12:59.832Z,5.88
2022-08-30T20:15:28.452Z,3.38
2022-08-30T20:18:05.441Z,3.35
2022-08-30T20:20:37.259Z,6.18
2022-08-30T20:23:07.051Z,3.78
2022-08-30T20:25:37.855Z,4.38
2022-08-30T20:28:07.013Z,4.63
2022-08-30T20:30:35.769Z,7.53
2022-08-30T20:33:08.396Z,3.50
2022-08-30T20:35:39.530Z,2.90
2022-08-30T20:38:08.194Z,3.17
2022-08-30T20:40:39.790Z,3.58
2022-08-30T20:43:08.623Z,3.70
2022-08-30T20:45:37.267Z,2.90
2022-08-30T20:48:06.448Z,3.10
2022-08-30T20:50:35.091Z,2.67
2022-08-30T20:53:05.238Z,3.00
2022-08-30T20:55:33.987Z,3.30
2022-08-30T20:58:02.597Z,3.03
2022-08-30T21:00:31.297Z,2.42
2022-08-30T21:02:59.899Z,2.50
2022-08-30T21:05:29.095Z,2.30
2022-08-30T21:07:58.051Z,2.65
2022-08-30T21:10:28.065Z,2.22
2022-08-30T21:12:57.136Z,2.58
2022-08-30T21:15:37.201Z,2.58
2022-08-30T21:18:06.968Z,2.70
2022-08-30T21:20:36.120Z,3.38
2022-08-30T21:23:05.338Z,2.53
2022-08-30T21:25:35.400Z,2.55
2022-08-30T21:28:04.342Z,2.30
2022-08-30T21:30:33.119Z,2.33
2022-08-30T21:33:03.430Z,4.30
2022-08-30T21:35:49.855Z,2.60
2022-08-30T21:38:19.424Z,2.20
2022-08-30T21:40:49.901Z,2.30
2022-08-30T21:43:18.586Z,2.20
2022-08-30T21:45:50.280Z,2.05
2022-08-30T21:48:19.077Z,2.30
2022-08-30T21:50:47.785Z,2.22
2022-08-30T21:53:17.137Z,2.17
2022-08-30T21:55:48.037Z,2.92
2022-08-30T21:58:18.416Z,2.58
2022-08-30T22:00:47.007Z,2.63
2022-08-30T22:03:16.115Z,3.42
2022-08-30T22:05:52.405Z,3.40
2022-08-30T22:08:20.968Z,2.33
2022-08-30T22:10:49.575Z,2.30
2022-08-30T22:13:19.734Z,2.20
2022-08-30T22:15:48.814Z,2.13
2022-08-30T22:18:18.544Z,2.30
2022-08-30T22:20:47.207Z,1.92
2022-08-30T22:23:18.862Z,1.60
2022-08-30T22:25:47.861Z,2.08
2022-08-30T22:28:16.496Z,1.90
2022-08-30T22:30:46.860Z,2.03
2022-08-30T22:33:16.922Z,2.22
2022-08-30T22:35:48.210Z,2.03
2022-08-30T22:38:16.976Z,1.85
2022-08-30T22:40:46.509Z,2.05
2022-08-30T22:43:15.857Z,2.10
2022-08-30T22:45:46.209Z,1.83
2022-08-30T22:48:15.294Z,1.88
2022-08-30T22:50:44.775Z,1.92
2022-08-30T22:53:13.434Z,2.10
2022-08-30T22:55:42.255Z,2.15
2022-08-30T22:58:10.918Z,2.13
2022-08-30T23:00:40.889Z,2.05
2022-08-30T23:03:17.147Z,1.83
2022-08-30T23:05:45.973Z,2.10
2022-08-30T23:08:14.591Z,2.00
2022-08-30T23:10:44.475Z,1.90
2022-08-30T23:13:13.171Z,2.45
2022-08-30T23:15:41.864Z,1.90
2022-08-30T23:18:10.757Z,1.80
2022-08-30T23:20:40.805Z,2.05
2022-08-30T23:23:08.358Z,1.90
2022-08-30T23:25:54.413Z,2.00
2022-08-30T23:28:40.867Z,2.03
2022-08-30T23:31:29.278Z,2.00
2022-08-30T23:34:15.916Z,2.00
2022-08-30T23:37:03.759Z,2.00
2022-08-30T23:39:50.068Z,16.85
2022-08-30T23:42:36.310Z,2.45
2022-08-30T23:45:23.155Z,2.10
2022-08-30T23:48:09.200Z,2.00
2022-08-30T23:50:55.066Z,1.85
2022-08-30T23:53:43.644Z,2.13
2022-08-30T23:56:30.677Z,2.17
2022-08-30T23:59:16.849Z,2.13
